sensor_id;sensor_type;location;lat;lon;timestamp;P1;durP1;ratioP1;P2;durP2;ratioP2
49029;SDS011;43337;52.070;4.508;2022-09-09T00:01:51;10.90;;;4.40;;
49029;SDS011;43337;52.070;4.508;2022-09-09T00:04:32;13.55;;;5.78;;
49029;SDS011;43337;52.070;4.508;2022-09-09T00:10:23;9.80;;;4.75;;
49029;SDS011;43337;52.070;4.508;2022-09-09T00:18:44;9.25;;;4.70;;
49029;SDS011;43337;52.070;4.508;2022-09-09T00:21:13;10.77;;;5.10;;
49029;SDS011;43337;52.070;4.508;2022-09-09T00:23:44;12.48;;;5.40;;
49029;SDS011;43337;52.070;4.508;2022-09-09T00:26:36;12.57;;;5.10;;
49029;SDS011;43337;52.070;4.508;2022-09-09T00:31:37;10.88;;;5.15;;
49029;SDS011;43337;52.070;4.508;2022-09-09T00:34:13;11.23;;;5.07;;
49029;SDS011;43337;52.070;4.508;2022-09-09T00:36:43;11.30;;;5.50;;
49029;SDS011;43337;52.070;4.508;2022-09-09T00:39:24;15.05;;;6.35;;
49029;SDS011;43337;52.070;4.508;2022-09-09T00:42:20;10.23;;;5.10;;
49029;SDS011;43337;52.070;4.508;2022-09-09T00:44:58;11.52;;;6.78;;
49029;SDS011;43337;52.070;4.508;2022-09-09T00:50:14;12.50;;;5.43;;
49029;SDS011;43337;52.070;4.508;2022-09-09T00:53:05;12.38;;;6.18;;
49029;SDS011;43337;52.070;4.508;2022-09-09T00:58:13;14.02;;;6.75;;
49029;SDS011;43337;52.070;4.508;2022-09-09T01:00:59;13.10;;;6.55;;
49029;SDS011;43337;52.070;4.508;2022-09-09T01:11:42;12.63;;;6.63;;
49029;SDS011;43337;52.070;4.508;2022-09-09T01:17:09;13.00;;;6.35;;
49029;SDS011;43337;52.070;4.508;2022-09-09T01:19:45;15.50;;;7.22;;
49029;SDS011;43337;52.070;4.508;2022-09-09T01:22:44;21.35;;;8.90;;
49029;SDS011;43337;52.070;4.508;2022-09-09T01:25:18;14.00;;;7.40;;
49029;SDS011;43337;52.070;4.508;2022-09-09T01:27:50;15.93;;;7.97;;
49029;SDS011;43337;52.070;4.508;2022-09-09T01:30:19;16.15;;;6.90;;
49029;SDS011;43337;52.070;4.508;2022-09-09T01:32:48;14.90;;;7.45;;
49029;SDS011;43337;52.070;4.508;2022-09-09T01:38:02;14.52;;;8.00;;
49029;SDS011;43337;52.070;4.508;2022-09-09T01:40:28;14.88;;;7.97;;
49029;SDS011;43337;52.070;4.508;2022-09-09T01:42:53;14.48;;;8.68;;
49029;SDS011;43337;52.070;4.508;2022-09-09T01:45:19;15.75;;;8.40;;
49029;SDS011;43337;52.070;4.508;2022-09-09T01:47:46;15.60;;;8.35;;
49029;SDS011;43337;52.070;4.508;2022-09-09T01:50:13;17.25;;;8.27;;
49029;SDS011;43337;52.070;4.508;2022-09-09T01:52:40;14.68;;;7.78;;
49029;SDS011;43337;52.070;4.508;2022-09-09T01:55:08;13.48;;;8.10;;
49029;SDS011;43337;52.070;4.508;2022-09-09T02:00:19;15.83;;;7.67;;
49029;SDS011;43337;52.070;4.508;2022-09-09T02:03:02;14.35;;;8.00;;
49029;SDS011;43337;52.070;4.508;2022-09-09T02:05:40;13.35;;;7.03;;
49029;SDS011;43337;52.070;4.508;2022-09-09T02:08:19;15.18;;;8.27;;
49029;SDS011;43337;52.070;4.508;2022-09-09T02:10:55;13.18;;;7.45;;
49029;SDS011;43337;52.070;4.508;2022-09-09T02:13:25;14.45;;;7.45;;
49029;SDS011;43337;52.070;4.508;2022-09-09T02:18:57;12.40;;;6.57;;
49029;SDS011;43337;52.070;4.508;2022-09-09T02:21:29;12.18;;;6.20;;
49029;SDS011;43337;52.070;4.508;2022-09-09T02:23:56;12.95;;;6.63;;
49029;SDS011;43337;52.070;4.508;2022-09-09T02:26:25;10.43;;;5.80;;
49029;SDS011;43337;52.070;4.508;2022-09-09T02:28:53;9.00;;;5.35;;
49029;SDS011;43337;52.070;4.508;2022-09-09T02:31:21;16.17;;;6.20;;
49029;SDS011;43337;52.070;4.508;2022-09-09T02:33:51;13.35;;;4.85;;
49029;SDS011;43337;52.070;4.508;2022-09-09T02:36:22;11.85;;;5.00;;
49029;SDS011;43337;52.070;4.508;2022-09-09T02:38:49;8.65;;;4.28;;
49029;SDS011;43337;52.070;4.508;2022-09-09T02:41:23;8.30;;;4.07;;
49029;SDS011;43337;52.070;4.508;2022-09-09T02:43:54;12.45;;;4.30;;
49029;SDS011;43337;52.070;4.508;2022-09-09T02:49:09;7.68;;;3.63;;
49029;SDS011;43337;52.070;4.508;2022-09-09T02:52:02;18.38;;;4.50;;
49029;SDS011;43337;52.070;4.508;2022-09-09T02:54:35;12.00;;;3.45;;
49029;SDS011;43337;52.070;4.508;2022-09-09T02:57:12;7.50;;;3.25;;
49029;SDS011;43337;52.070;4.508;2022-09-09T02:59:52;11.77;;;3.30;;
49029;SDS011;43337;52.070;4.508;2022-09-09T03:02:19;8.98;;;3.30;;
49029;SDS011;43337;52.070;4.508;2022-09-09T03:04:45;11.52;;;3.88;;
49029;SDS011;43337;52.070;4.508;2022-09-09T03:07:15;10.23;;;3.30;;
49029;SDS011;43337;52.070;4.508;2022-09-09T03:09:42;9.48;;;3.40;;
49029;SDS011;43337;52.070;4.508;2022-09-09T03:12:07;10.82;;;3.30;;
49029;SDS011;43337;52.070;4.508;2022-09-09T03:14:33;8.75;;;2.72;;
49029;SDS011;43337;52.070;4.508;2022-09-09T03:16:58;7.10;;;3.22;;
49029;SDS011;43337;52.070;4.508;2022-09-09T03:19:26;8.20;;;2.75;;
49029;SDS011;43337;52.070;4.508;2022-09-09T03:21:52;7.47;;;3.00;;
49029;SDS011;43337;52.070;4.508;2022-09-09T03:24:18;7.63;;;2.55;;
49029;SDS011;43337;52.070;4.508;2022-09-09T03:26:44;9.60;;;2.60;;
49029;SDS011;43337;52.070;4.508;2022-09-09T03:29:10;7.30;;;3.10;;
49029;SDS011;43337;52.070;4.508;2022-09-09T03:31:37;8.23;;;2.47;;
49029;SDS011;43337;52.070;4.508;2022-09-09T03:34:03;7.88;;;2.97;;
49029;SDS011;43337;52.070;4.508;2022-09-09T03:36:28;8.35;;;3.25;;
49029;SDS011;43337;52.070;4.508;2022-09-09T03:38:54;8.25;;;3.42;;
49029;SDS011;43337;52.070;4.508;2022-09-09T03:41:20;7.10;;;2.83;;
49029;SDS011;43337;52.070;4.508;2022-09-09T03:43:48;7.15;;;2.60;;
49029;SDS011;43337;52.070;4.508;2022-09-09T03:46:17;11.13;;;2.45;;
49029;SDS011;43337;52.070;4.508;2022-09-09T03:48:43;10.75;;;2.65;;
49029;SDS011;43337;52.070;4.508;2022-09-09T03:51:09;10.43;;;2.78;;
49029;SDS011;43337;52.070;4.508;2022-09-09T03:53:35;12.25;;;2.88;;
49029;SDS011;43337;52.070;4.508;2022-09-09T03:56:03;11.55;;;2.95;;
49029;SDS011;43337;52.070;4.508;2022-09-09T03:58:31;8.93;;;2.63;;
49029;SDS011;43337;52.070;4.508;2022-09-09T04:01:05;8.30;;;2.72;;
49029;SDS011;43337;52.070;4.508;2022-09-09T04:03:35;4.93;;;2.20;;
49029;SDS011;43337;52.070;4.508;2022-09-09T04:06:02;7.55;;;2.85;;
49029;SDS011;43337;52.070;4.508;2022-09-09T04:08:29;9.07;;;2.40;;
49029;SDS011;43337;52.070;4.508;2022-09-09T04:10:57;5.82;;;2.20;;
49029;SDS011;43337;52.070;4.508;2022-09-09T04:13:24;6.82;;;2.42;;
49029;SDS011;43337;52.070;4.508;2022-09-09T04:15:54;8.75;;;2.60;;
49029;SDS011;43337;52.070;4.508;2022-09-09T04:18:21;9.23;;;2.53;;
49029;SDS011;43337;52.070;4.508;2022-09-09T04:20:49;7.80;;;2.70;;
49029;SDS011;43337;52.070;4.508;2022-09-09T04:23:15;11.00;;;2.60;;
49029;SDS011;43337;52.070;4.508;2022-09-09T04:25:50;10.35;;;2.78;;
49029;SDS011;43337;52.070;4.508;2022-09-09T04:28:18;9.57;;;2.70;;
49029;SDS011;43337;52.070;4.508;2022-09-09T04:30:45;10.18;;;2.90;;
49029;SDS011;43337;52.070;4.508;2022-09-09T04:33:10;11.40;;;3.55;;
49029;SDS011;43337;52.070;4.508;2022-09-09T04:35:37;9.77;;;2.40;;
49029;SDS011;43337;52.070;4.508;2022-09-09T04:38:05;6.95;;;2.13;;
49029;SDS011;43337;52.070;4.508;2022-09-09T04:40:32;9.25;;;2.47;;
49029;SDS011;43337;52.070;4.508;2022-09-09T04:42:58;6.10;;;2.35;;
49029;SDS011;43337;52.070;4.508;2022-09-09T04:45:29;10.00;;;2.65;;
49029;SDS011;43337;52.070;4.508;2022-09-09T04:47:55;11.20;;;2.45;;
49029;SDS011;43337;52.070;4.508;2022-09-09T04:50:21;7.00;;;2.50;;
49029;SDS011;43337;52.070;4.508;2022-09-09T04:52:47;8.75;;;3.22;;
49029;SDS011;43337;52.070;4.508;2022-09-09T04:55:12;7.47;;;2.63;;
49029;SDS011;43337;52.070;4.508;2022-09-09T04:57:38;10.85;;;2.60;;
49029;SDS011;43337;52.070;4.508;2022-09-09T05:00:04;9.63;;;2.45;;
49029;SDS011;43337;52.070;4.508;2022-09-09T05:02:30;7.68;;;2.38;;
49029;SDS011;43337;52.070;4.508;2022-09-09T05:04:57;7.05;;;2.10;;
49029;SDS011;43337;52.070;4.508;2022-09-09T05:07:23;7.90;;;2.30;;
49029;SDS011;43337;52.070;4.508;2022-09-09T05:09:48;10.35;;;2.58;;
49029;SDS011;43337;52.070;4.508;2022-09-09T05:12:14;9.52;;;2.97;;
49029;SDS011;43337;52.070;4.508;2022-09-09T05:14:42;7.78;;;2.72;;
49029;SDS011;43337;52.070;4.508;2022-09-09T05:17:07;8.52;;;2.58;;
49029;SDS011;43337;52.070;4.508;2022-09-09T05:19:33;13.45;;;2.70;;
49029;SDS011;43337;52.070;4.508;2022-09-09T05:21:58;8.50;;;2.88;;
49029;SDS011;43337;52.070;4.508;2022-09-09T05:24:24;10.40;;;2.70;;
49029;SDS011;43337;52.070;4.508;2022-09-09T05:26:49;9.40;;;3.38;;
49029;SDS011;43337;52.070;4.508;2022-09-09T05:29:14;8.57;;;2.55;;
49029;SDS011;43337;52.070;4.508;2022-09-09T05:31:42;8.07;;;2.35;;
49029;SDS011;43337;52.070;4.508;2022-09-09T05:34:07;9.50;;;2.58;;
49029;SDS011;43337;52.070;4.508;2022-09-09T05:36:32;17.05;;;3.75;;
49029;SDS011;43337;52.070;4.508;2022-09-09T05:38:58;9.60;;;2.20;;
49029;SDS011;43337;52.070;4.508;2022-09-09T05:41:23;7.45;;;2.63;;
49029;SDS011;43337;52.070;4.508;2022-09-09T05:43:49;9.27;;;2.75;;
49029;SDS011;43337;52.070;4.508;2022-09-09T05:48:45;16.15;;;3.90;;
49029;SDS011;43337;52.070;4.508;2022-09-09T05:51:14;10.27;;;2.90;;
49029;SDS011;43337;52.070;4.508;2022-09-09T05:53:42;11.75;;;2.60;;
49029;SDS011;43337;52.070;4.508;2022-09-09T05:56:19;8.77;;;2.40;;
49029;SDS011;43337;52.070;4.508;2022-09-09T05:58:47;7.80;;;2.15;;
49029;SDS011;43337;52.070;4.508;2022-09-09T06:01:15;7.10;;;2.47;;
49029;SDS011;43337;52.070;4.508;2022-09-09T06:03:42;11.07;;;3.03;;
49029;SDS011;43337;52.070;4.508;2022-09-09T06:06:10;9.07;;;2.65;;
49029;SDS011;43337;52.070;4.508;2022-09-09T06:08:38;10.35;;;2.85;;
49029;SDS011;43337;52.070;4.508;2022-09-09T06:11:05;10.93;;;2.35;;
49029;SDS011;43337;52.070;4.508;2022-09-09T06:13:33;11.75;;;2.75;;
49029;SDS011;43337;52.070;4.508;2022-09-09T06:16:00;16.40;;;3.80;;
49029;SDS011;43337;52.070;4.508;2022-09-09T06:18:25;11.35;;;3.10;;
49029;SDS011;43337;52.070;4.508;2022-09-09T06:23:20;22.35;;;7.47;;
49029;SDS011;43337;52.070;4.508;2022-09-09T06:25:45;14.95;;;4.03;;
49029;SDS011;43337;52.070;4.508;2022-09-09T06:28:11;14.05;;;5.88;;
49029;SDS011;43337;52.070;4.508;2022-09-09T06:30:37;10.98;;;3.10;;
49029;SDS011;43337;52.070;4.508;2022-09-09T06:33:03;9.57;;;2.60;;
49029;SDS011;43337;52.070;4.508;2022-09-09T06:35:29;7.80;;;2.83;;
49029;SDS011;43337;52.070;4.508;2022-09-09T06:37:54;9.07;;;3.63;;
49029;SDS011;43337;52.070;4.508;2022-09-09T06:40:19;10.57;;;2.90;;
49029;SDS011;43337;52.070;4.508;2022-09-09T06:42:45;11.55;;;2.60;;
49029;SDS011;43337;52.070;4.508;2022-09-09T06:45:10;13.40;;;3.20;;
49029;SDS011;43337;52.070;4.508;2022-09-09T06:47:36;15.18;;;3.50;;
49029;SDS011;43337;52.070;4.508;2022-09-09T06:50:01;14.07;;;2.80;;
49029;SDS011;43337;52.070;4.508;2022-09-09T06:52:26;9.63;;;3.03;;
49029;SDS011;43337;52.070;4.508;2022-09-09T06:54:53;11.15;;;2.80;;
49029;SDS011;43337;52.070;4.508;2022-09-09T06:57:18;11.18;;;3.40;;
49029;SDS011;43337;52.070;4.508;2022-09-09T06:59:44;9.85;;;3.88;;
49029;SDS011;43337;52.070;4.508;2022-09-09T07:02:09;9.48;;;3.35;;
49029;SDS011;43337;52.070;4.508;2022-09-09T07:04:35;12.93;;;3.67;;
49029;SDS011;43337;52.070;4.508;2022-09-09T07:07:02;10.30;;;3.35;;
49029;SDS011;43337;52.070;4.508;2022-09-09T07:09:27;11.68;;;3.72;;
49029;SDS011;43337;52.070;4.508;2022-09-09T07:11:54;10.45;;;3.38;;
49029;SDS011;43337;52.070;4.508;2022-09-09T07:14:19;14.60;;;3.67;;
49029;SDS011;43337;52.070;4.508;2022-09-09T07:16:46;8.35;;;3.40;;
49029;SDS011;43337;52.070;4.508;2022-09-09T07:19:11;10.90;;;4.00;;
49029;SDS011;43337;52.070;4.508;2022-09-09T07:21:37;12.10;;;3.22;;
49029;SDS011;43337;52.070;4.508;2022-09-09T07:24:05;10.38;;;3.20;;
49029;SDS011;43337;52.070;4.508;2022-09-09T07:26:32;8.38;;;3.22;;
49029;SDS011;43337;52.070;4.508;2022-09-09T07:28:58;13.30;;;3.38;;
49029;SDS011;43337;52.070;4.508;2022-09-09T07:31:28;12.75;;;3.72;;
49029;SDS011;43337;52.070;4.508;2022-09-09T07:33:58;15.00;;;3.63;;
49029;SDS011;43337;52.070;4.508;2022-09-09T07:36:45;13.77;;;3.83;;
49029;SDS011;43337;52.070;4.508;2022-09-09T07:39:12;11.85;;;3.65;;
49029;SDS011;43337;52.070;4.508;2022-09-09T07:41:39;10.57;;;3.72;;
49029;SDS011;43337;52.070;4.508;2022-09-09T07:44:09;13.43;;;4.50;;
49029;SDS011;43337;52.070;4.508;2022-09-09T07:46:42;11.20;;;3.90;;
49029;SDS011;43337;52.070;4.508;2022-09-09T07:49:08;18.63;;;6.07;;
49029;SDS011;43337;52.070;4.508;2022-09-09T07:51:40;14.85;;;4.15;;
49029;SDS011;43337;52.070;4.508;2022-09-09T07:54:08;11.75;;;4.57;;
49029;SDS011;43337;52.070;4.508;2022-09-09T07:56:36;10.68;;;3.85;;
49029;SDS011;43337;52.070;4.508;2022-09-09T07:59:02;13.90;;;4.03;;
49029;SDS011;43337;52.070;4.508;2022-09-09T08:01:30;13.38;;;4.05;;
49029;SDS011;43337;52.070;4.508;2022-09-09T08:04:06;11.20;;;4.63;;
49029;SDS011;43337;52.070;4.508;2022-09-09T08:06:39;9.45;;;3.38;;
49029;SDS011;43337;52.070;4.508;2022-09-09T08:09:07;17.55;;;3.60;;
49029;SDS011;43337;52.070;4.508;2022-09-09T08:11:34;10.88;;;3.40;;
49029;SDS011;43337;52.070;4.508;2022-09-09T08:14:01;11.98;;;3.70;;
49029;SDS011;43337;52.070;4.508;2022-09-09T08:16:32;6.50;;;3.22;;
49029;SDS011;43337;52.070;4.508;2022-09-09T08:18:58;10.88;;;4.25;;
49029;SDS011;43337;52.070;4.508;2022-09-09T08:21:25;18.55;;;4.43;;
49029;SDS011;43337;52.070;4.508;2022-09-09T08:23:53;14.20;;;3.30;;
49029;SDS011;43337;52.070;4.508;2022-09-09T08:26:23;9.52;;;3.17;;
49029;SDS011;43337;52.070;4.508;2022-09-09T08:28:52;11.90;;;3.78;;
49029;SDS011;43337;52.070;4.508;2022-09-09T08:31:21;11.32;;;3.60;;
49029;SDS011;43337;52.070;4.508;2022-09-09T08:33:48;6.90;;;2.63;;
49029;SDS011;43337;52.070;4.508;2022-09-09T08:36:15;9.32;;;3.05;;
49029;SDS011;43337;52.070;4.508;2022-09-09T08:38:48;12.68;;;3.80;;
49029;SDS011;43337;52.070;4.508;2022-09-09T08:52:31;11.90;;;3.33;;
49029;SDS011;43337;52.070;4.508;2022-09-09T08:57:51;9.70;;;3.97;;
49029;SDS011;43337;52.070;4.508;2022-09-09T09:00:21;9.90;;;3.20;;
49029;SDS011;43337;52.070;4.508;2022-09-09T09:11:23;10.15;;;3.25;;
49029;SDS011;43337;52.070;4.508;2022-09-09T09:13:53;18.42;;;7.32;;
49029;SDS011;43337;52.070;4.508;2022-09-09T09:16:26;12.20;;;5.32;;
49029;SDS011;43337;52.070;4.508;2022-09-09T09:18:59;12.82;;;3.90;;
49029;SDS011;43337;52.070;4.508;2022-09-09T09:21:36;8.95;;;3.38;;
49029;SDS011;43337;52.070;4.508;2022-09-09T09:24:09;11.50;;;3.63;;
49029;SDS011;43337;52.070;4.508;2022-09-09T09:26:43;13.68;;;3.97;;
49029;SDS011;43337;52.070;4.508;2022-09-09T09:29:13;9.60;;;3.80;;
49029;SDS011;43337;52.070;4.508;2022-09-09T09:31:42;12.68;;;4.15;;
49029;SDS011;43337;52.070;4.508;2022-09-09T09:34:14;11.40;;;4.30;;
49029;SDS011;43337;52.070;4.508;2022-09-09T09:36:40;15.27;;;4.50;;
49029;SDS011;43337;52.070;4.508;2022-09-09T09:39:09;13.95;;;4.10;;
49029;SDS011;43337;52.070;4.508;2022-09-09T09:41:40;8.95;;;3.90;;
49029;SDS011;43337;52.070;4.508;2022-09-09T09:49:52;11.70;;;3.95;;
49029;SDS011;43337;52.070;4.508;2022-09-09T09:52:29;13.75;;;4.22;;
49029;SDS011;43337;52.070;4.508;2022-09-09T09:54:56;10.70;;;4.20;;
49029;SDS011;43337;52.070;4.508;2022-09-09T09:57:25;13.40;;;3.92;;
49029;SDS011;43337;52.070;4.508;2022-09-09T10:00:15;12.90;;;4.30;;
49029;SDS011;43337;52.070;4.508;2022-09-09T10:02:42;13.30;;;4.88;;
49029;SDS011;43337;52.070;4.508;2022-09-09T10:07:45;9.73;;;3.70;;
49029;SDS011;43337;52.070;4.508;2022-09-09T10:10:21;11.07;;;3.05;;
49029;SDS011;43337;52.070;4.508;2022-09-09T10:13:53;10.15;;;3.42;;
49029;SDS011;43337;52.070;4.508;2022-09-09T10:18:24;6.82;;;3.22;;
49029;SDS011;43337;52.070;4.508;2022-09-09T10:29:22;9.50;;;3.47;;
49029;SDS011;43337;52.070;4.508;2022-09-09T10:40:38;12.82;;;4.30;;
49029;SDS011;43337;52.070;4.508;2022-09-09T10:49:04;7.88;;;4.15;;
49029;SDS011;43337;52.070;4.508;2022-09-09T10:57:50;7.25;;;3.28;;
49029;SDS011;43337;52.070;4.508;2022-09-09T11:00:27;11.15;;;3.50;;
49029;SDS011;43337;52.070;4.508;2022-09-09T11:03:04;9.02;;;3.20;;
49029;SDS011;43337;52.070;4.508;2022-09-09T11:05:36;6.03;;;2.65;;
49029;SDS011;43337;52.070;4.508;2022-09-09T11:08:11;8.25;;;3.10;;
49029;SDS011;43337;52.070;4.508;2022-09-09T11:13:10;7.18;;;2.55;;
49029;SDS011;43337;52.070;4.508;2022-09-09T11:15:49;5.78;;;2.47;;
49029;SDS011;43337;52.070;4.508;2022-09-09T11:18:20;7.55;;;2.60;;
49029;SDS011;43337;52.070;4.508;2022-09-09T11:20:48;6.53;;;2.42;;
49029;SDS011;43337;52.070;4.508;2022-09-09T11:23:59;5.80;;;2.17;;
49029;SDS011;43337;52.070;4.508;2022-09-09T11:26:27;6.93;;;2.70;;
49029;SDS011;43337;52.070;4.508;2022-09-09T11:31:40;6.38;;;2.90;;
49029;SDS011;43337;52.070;4.508;2022-09-09T11:34:46;8.73;;;2.90;;
49029;SDS011;43337;52.070;4.508;2022-09-09T11:37:23;8.65;;;2.47;;
49029;SDS011;43337;52.070;4.508;2022-09-09T11:40:14;10.77;;;3.00;;
49029;SDS011;43337;52.070;4.508;2022-09-09T11:42:44;8.20;;;2.72;;
49029;SDS011;43337;52.070;4.508;2022-09-09T11:45:21;8.20;;;2.95;;
49029;SDS011;43337;52.070;4.508;2022-09-09T11:48:22;6.65;;;2.83;;
49029;SDS011;43337;52.070;4.508;2022-09-09T11:50:57;7.50;;;2.50;;
49029;SDS011;43337;52.070;4.508;2022-09-09T11:53:24;8.35;;;2.65;;
49029;SDS011;43337;52.070;4.508;2022-09-09T11:58:42;10.32;;;3.35;;
49029;SDS011;43337;52.070;4.508;2022-09-09T12:01:28;8.50;;;3.30;;
49029;SDS011;43337;52.070;4.508;2022-09-09T12:04:06;9.40;;;3.72;;
49029;SDS011;43337;52.070;4.508;2022-09-09T12:12:34;8.88;;;3.33;;
49029;SDS011;43337;52.070;4.508;2022-09-09T12:18:06;6.75;;;2.92;;
49029;SDS011;43337;52.070;4.508;2022-09-09T12:28:08;8.88;;;3.28;;
49029;SDS011;43337;52.070;4.508;2022-09-09T12:33:10;9.02;;;4.07;;
49029;SDS011;43337;52.070;4.508;2022-09-09T12:35:41;9.48;;;3.45;;
49029;SDS011;43337;52.070;4.508;2022-09-09T12:38:10;7.10;;;2.70;;
49029;SDS011;43337;52.070;4.508;2022-09-09T12:40:53;7.05;;;2.30;;
49029;SDS011;43337;52.070;4.508;2022-09-09T12:43:23;11.43;;;2.60;;
49029;SDS011;43337;52.070;4.508;2022-09-09T12:45:51;6.65;;;2.88;;
49029;SDS011;43337;52.070;4.508;2022-09-09T12:48:27;4.68;;;2.47;;
49029;SDS011;43337;52.070;4.508;2022-09-09T12:51:06;8.30;;;3.15;;
49029;SDS011;43337;52.070;4.508;2022-09-09T12:53:44;8.25;;;3.30;;
49029;SDS011;43337;52.070;4.508;2022-09-09T12:56:19;6.20;;;2.60;;
49029;SDS011;43337;52.070;4.508;2022-09-09T12:58:47;7.55;;;2.50;;
49029;SDS011;43337;52.070;4.508;2022-09-09T13:01:24;7.43;;;3.08;;
49029;SDS011;43337;52.070;4.508;2022-09-09T13:03:52;9.00;;;2.95;;
49029;SDS011;43337;52.070;4.508;2022-09-09T13:06:25;10.35;;;3.17;;
49029;SDS011;43337;52.070;4.508;2022-09-09T13:08:53;9.13;;;2.65;;
49029;SDS011;43337;52.070;4.508;2022-09-09T13:11:21;6.22;;;2.35;;
49029;SDS011;43337;52.070;4.508;2022-09-09T13:17:00;6.43;;;2.30;;
49029;SDS011;43337;52.070;4.508;2022-09-09T13:19:33;6.10;;;2.08;;
49029;SDS011;43337;52.070;4.508;2022-09-09T13:22:12;6.90;;;2.22;;
49029;SDS011;43337;52.070;4.508;2022-09-09T13:24:39;5.28;;;1.67;;
49029;SDS011;43337;52.070;4.508;2022-09-09T13:27:05;5.60;;;1.98;;
49029;SDS011;43337;52.070;4.508;2022-09-09T13:32:22;5.63;;;2.08;;
49029;SDS011;43337;52.070;4.508;2022-09-09T13:34:52;3.58;;;1.50;;
49029;SDS011;43337;52.070;4.508;2022-09-09T13:39:52;5.97;;;2.00;;
49029;SDS011;43337;52.070;4.508;2022-09-09T13:42:24;5.68;;;2.17;;
49029;SDS011;43337;52.070;4.508;2022-09-09T13:44:51;6.20;;;1.95;;
49029;SDS011;43337;52.070;4.508;2022-09-09T13:47:18;7.05;;;2.53;;
49029;SDS011;43337;52.070;4.508;2022-09-09T13:49:45;5.57;;;2.15;;
49029;SDS011;43337;52.070;4.508;2022-09-09T13:52:12;3.75;;;1.17;;
49029;SDS011;43337;52.070;4.508;2022-09-09T13:54:39;3.45;;;0.90;;
49029;SDS011;43337;52.070;4.508;2022-09-09T13:57:17;2.33;;;0.63;;
49029;SDS011;43337;52.070;4.508;2022-09-09T13:59:47;2.25;;;0.52;;
49029;SDS011;43337;52.070;4.508;2022-09-09T14:02:14;1.25;;;0.45;;
49029;SDS011;43337;52.070;4.508;2022-09-09T14:04:41;6.88;;;2.13;;
49029;SDS011;43337;52.070;4.508;2022-09-09T14:07:11;4.78;;;1.00;;
49029;SDS011;43337;52.070;4.508;2022-09-09T14:09:39;3.70;;;1.00;;
49029;SDS011;43337;52.070;4.508;2022-09-09T14:12:05;3.47;;;0.90;;
49029;SDS011;43337;52.070;4.508;2022-09-09T14:14:33;3.25;;;0.90;;
49029;SDS011;43337;52.070;4.508;2022-09-09T14:16:59;5.97;;;1.10;;
49029;SDS011;43337;52.070;4.508;2022-09-09T14:19:24;4.13;;;1.38;;
49029;SDS011;43337;52.070;4.508;2022-09-09T14:21:49;6.53;;;1.48;;
49029;SDS011;43337;52.070;4.508;2022-09-09T14:24:15;4.80;;;1.60;;
49029;SDS011;43337;52.070;4.508;2022-09-09T14:26:41;8.75;;;2.30;;
49029;SDS011;43337;52.070;4.508;2022-09-09T14:29:06;4.88;;;1.50;;
49029;SDS011;43337;52.070;4.508;2022-09-09T14:31:32;5.45;;;1.35;;
49029;SDS011;43337;52.070;4.508;2022-09-09T14:33:57;6.93;;;1.70;;
49029;SDS011;43337;52.070;4.508;2022-09-09T14:36:24;5.47;;;1.40;;
49029;SDS011;43337;52.070;4.508;2022-09-09T14:38:49;4.63;;;1.35;;
49029;SDS011;43337;52.070;4.508;2022-09-09T14:41:16;5.75;;;1.38;;
49029;SDS011;43337;52.070;4.508;2022-09-09T14:43:43;6.80;;;2.17;;
49029;SDS011;43337;52.070;4.508;2022-09-09T14:46:13;5.10;;;1.45;;
49029;SDS011;43337;52.070;4.508;2022-09-09T14:48:39;3.97;;;1.40;;
49029;SDS011;43337;52.070;4.508;2022-09-09T14:51:09;7.78;;;1.90;;
49029;SDS011;43337;52.070;4.508;2022-09-09T14:53:39;5.70;;;1.40;;
49029;SDS011;43337;52.070;4.508;2022-09-09T14:56:12;6.80;;;1.90;;
49029;SDS011;43337;52.070;4.508;2022-09-09T14:58:41;8.70;;;1.90;;
49029;SDS011;43337;52.070;4.508;2022-09-09T15:01:08;10.82;;;2.20;;
49029;SDS011;43337;52.070;4.508;2022-09-09T15:03:35;6.18;;;1.52;;
49029;SDS011;43337;52.070;4.508;2022-09-09T15:06:08;7.40;;;1.42;;
49029;SDS011;43337;52.070;4.508;2022-09-09T15:08:39;5.63;;;1.40;;
49029;SDS011;43337;52.070;4.508;2022-09-09T15:11:06;10.65;;;2.05;;
49029;SDS011;43337;52.070;4.508;2022-09-09T15:13:32;9.00;;;1.90;;
49029;SDS011;43337;52.070;4.508;2022-09-09T15:16:05;8.57;;;1.70;;
49029;SDS011;43337;52.070;4.508;2022-09-09T15:18:32;5.87;;;1.50;;
49029;SDS011;43337;52.070;4.508;2022-09-09T15:20:59;8.57;;;1.67;;
49029;SDS011;43337;52.070;4.508;2022-09-09T15:23:26;8.02;;;1.30;;
49029;SDS011;43337;52.070;4.508;2022-09-09T15:25:55;6.50;;;1.33;;
49029;SDS011;43337;52.070;4.508;2022-09-09T15:28:21;6.82;;;1.30;;
49029;SDS011;43337;52.070;4.508;2022-09-09T15:30:48;6.00;;;1.25;;
49029;SDS011;43337;52.070;4.508;2022-09-09T15:33:14;8.45;;;1.60;;
49029;SDS011;43337;52.070;4.508;2022-09-09T15:35:40;5.47;;;1.67;;
49029;SDS011;43337;52.070;4.508;2022-09-09T15:38:05;5.20;;;1.50;;
49029;SDS011;43337;52.070;4.508;2022-09-09T15:40:31;7.50;;;1.52;;
49029;SDS011;43337;52.070;4.508;2022-09-09T15:43:00;8.50;;;1.40;;
49029;SDS011;43337;52.070;4.508;2022-09-09T15:45:25;8.55;;;1.73;;
49029;SDS011;43337;52.070;4.508;2022-09-09T15:47:52;7.32;;;1.63;;
49029;SDS011;43337;52.070;4.508;2022-09-09T15:50:17;18.20;;;2.83;;
49029;SDS011;43337;52.070;4.508;2022-09-09T15:52:43;9.30;;;2.03;;
49029;SDS011;43337;52.070;4.508;2022-09-09T15:55:09;7.90;;;1.63;;
49029;SDS011;43337;52.070;4.508;2022-09-09T15:57:34;11.98;;;2.25;;
49029;SDS011;43337;52.070;4.508;2022-09-09T16:00:01;4.95;;;1.63;;
49029;SDS011;43337;52.070;4.508;2022-09-09T16:02:28;8.23;;;1.80;;
49029;SDS011;43337;52.070;4.508;2022-09-09T16:04:55;5.72;;;1.80;;
49029;SDS011;43337;52.070;4.508;2022-09-09T16:07:22;5.68;;;2.17;;
49029;SDS011;43337;52.070;4.508;2022-09-09T16:09:47;10.23;;;3.90;;
49029;SDS011;43337;52.070;4.508;2022-09-09T16:12:15;17.77;;;7.68;;
49029;SDS011;43337;52.070;4.508;2022-09-09T16:14:41;15.20;;;6.25;;
49029;SDS011;43337;52.070;4.508;2022-09-09T16:17:06;18.35;;;8.82;;
49029;SDS011;43337;52.070;4.508;2022-09-09T16:19:32;6.68;;;2.72;;
49029;SDS011;43337;52.070;4.508;2022-09-09T16:21:59;10.00;;;2.90;;
49029;SDS011;43337;52.070;4.508;2022-09-09T16:24:25;7.38;;;2.88;;
49029;SDS011;43337;52.070;4.508;2022-09-09T16:26:51;11.88;;;3.10;;
49029;SDS011;43337;52.070;4.508;2022-09-09T16:29:19;9.13;;;3.60;;
49029;SDS011;43337;52.070;4.508;2022-09-09T16:32:05;8.52;;;4.10;;
49029;SDS011;43337;52.070;4.508;2022-09-09T16:34:30;11.63;;;5.73;;
49029;SDS011;43337;52.070;4.508;2022-09-09T16:36:56;9.35;;;4.80;;
49029;SDS011;43337;52.070;4.508;2022-09-09T16:39:21;15.27;;;6.78;;
49029;SDS011;43337;52.070;4.508;2022-09-09T16:41:47;18.92;;;7.20;;
49029;SDS011;43337;52.070;4.508;2022-09-09T16:44:15;14.10;;;7.35;;
49029;SDS011;43337;52.070;4.508;2022-09-09T16:46:43;16.73;;;7.75;;
49029;SDS011;43337;52.070;4.508;2022-09-09T16:49:13;13.40;;;7.22;;
49029;SDS011;43337;52.070;4.508;2022-09-09T16:51:43;17.02;;;7.97;;
49029;SDS011;43337;52.070;4.508;2022-09-09T16:54:13;19.02;;;10.82;;
49029;SDS011;43337;52.070;4.508;2022-09-09T16:56:41;17.70;;;7.97;;
49029;SDS011;43337;52.070;4.508;2022-09-09T16:59:09;13.48;;;7.00;;
49029;SDS011;43337;52.070;4.508;2022-09-09T17:01:43;13.05;;;7.28;;
49029;SDS011;43337;52.070;4.508;2022-09-09T17:04:10;12.93;;;7.00;;
49029;SDS011;43337;52.070;4.508;2022-09-09T17:06:41;16.55;;;5.82;;
49029;SDS011;43337;52.070;4.508;2022-09-09T17:09:08;13.15;;;5.35;;
49029;SDS011;43337;52.070;4.508;2022-09-09T17:11:35;10.55;;;5.30;;
49029;SDS011;43337;52.070;4.508;2022-09-09T17:14:03;12.98;;;5.50;;
49029;SDS011;43337;52.070;4.508;2022-09-09T17:16:30;13.68;;;4.47;;
49029;SDS011;43337;52.070;4.508;2022-09-09T17:18:57;10.57;;;4.70;;